^^
Meteo Knjazevac Station Historical Data
Daily Summary for August 13, 2022 Units:  Both    English   Metric
Daily Weekly Monthly Yearly Custom
  High: Low: Average:
Temperature: 59.5 °F /  15.3 °C 34.9 °F /  1.6 °C 44.6 °F /  7 °C
Dew Point: 51.6 °F /  10.9 °C 34.6 °F /  1.4 °C 42.6 °F /  5.9 °C
Humidity: 99% 75% 94%
Wind Speed: 10.9mph /  17.5km/h - 3.1mph /  5km/h
Wind Gust: 12mph /  19.3km/h - -
Wind- - South
Pressure: 30.47 in /  1031.7 hPa 30.37 in /  1028.3 hPa -
Precipitation: 0.00 in /  0 mm    
Historical Graphs
 
 
Tabular Data for August 13, 2022
Time Temperature Dew Point Pressure Wind Wind Speed Wind Gust Humidity Rainfall Rate (Hourly) solar Conditions
00:04 43.6 °F /  6.4 °C 42.5 °F /  5.8 °C 30.46in /  1031.4hPa South 4.3mph /  6.9km/h 6mph /  9.7km/h 96% 0.00in /  0mm 0 W/m2
00:09 43.5 °F /  6.4 °C 42.9 °F /  6.1 °C 30.46in /  1031.4hPa SW 3.2mph /  5.1km/h 5mph /  8km/h 97.5% 0.00in /  0mm 0 W/m2
00:14 43.3 °F /  6.3 °C 42.8 °F /  6 °C 30.46in /  1031.4hPa NW 2.5mph /  4km/h 4mph /  6.4km/h 98% 0.00in /  0mm 0 W/m2
00:19 43.2 °F /  6.2 °C 42.6 °F /  5.9 °C 30.46in /  1031.4hPa SW 3.4mph /  5.5km/h 3mph /  4.8km/h 98% 0.00in /  0mm 0 W/m2
00:24 43.2 °F /  6.2 °C 42.6 °F /  5.9 °C 30.46in /  1031.4hPa West 2.8mph /  4.5km/h 4mph /  6.4km/h 98% 0.00in /  0mm 0 W/m2
00:29 43 °F /  6.1 °C 42.5 °F /  5.8 °C 30.46in /  1031.4hPa West 3.9mph /  6.3km/h 5mph /  8km/h 98% 0.00in /  0mm 0 W/m2
00:34 43 °F /  6.1 °C 42.5 °F /  5.8 °C 30.46in /  1031.4hPa West 2.8mph /  4.5km/h 5mph /  8km/h 98% 0.00in /  0mm 0 W/m2
00:39 43 °F /  6.1 °C 42.5 °F /  5.8 °C 30.46in /  1031.4hPa NW 1.3mph /  2.1km/h 3mph /  4.8km/h 98% 0.00in /  0mm 0 W/m2
00:44 43 °F /  6.1 °C 42.5 °F /  5.8 °C 30.46in /  1031.4hPa NNW 3.1mph /  5km/h 2.9mph /  4.7km/h 98% 0.00in /  0mm 0 W/m2
00:49 42.9 °F /  6.1 °C 42.5 °F /  5.8 °C 30.46in /  1031.4hPa North 1.5mph /  2.4km/h 4mph /  6.4km/h 98.7% 0.00in /  0mm 0 W/m2
00:54 42.8 °F /  6 °C 42.5 °F /  5.8 °C 30.46in /  1031.4hPa NNE 2.1mph /  3.4km/h 2mph /  3.2km/h 99% 0.00in /  0mm 0 W/m2
00:59 42.8 °F /  6 °C 42.5 °F /  5.8 °C 30.46in /  1031.4hPa NE 2.9mph /  4.7km/h 3mph /  4.8km/h 99% 0.00in /  0mm 0 W/m2
01:04 42.8 °F /  6 °C 42.5 °F /  5.8 °C 30.46in /  1031.4hPa ENE 1.5mph /  2.4km/h 3mph /  4.8km/h 99% 0.00in /  0mm 0 W/m2
01:09 42.9 °F /  6.1 °C 42.6 °F /  5.9 °C 30.46in /  1031.4hPa SW 1.4mph /  2.3km/h 2mph /  3.2km/h 99% 0.00in /  0mm 0 W/m2
01:14 42.9 °F /  6.1 °C 42.6 °F /  5.9 °C 30.46in /  1031.4hPa NNW 0.4mph /  0.6km/h 2mph /  3.2km/h 99% 0.00in /  0mm 0 W/m2
01:19 42.8 °F /  6 °C 42.5 °F /  5.8 °C 30.45in /  1031hPa North 1.5mph /  2.4km/h 2mph /  3.2km/h 99% 0.00in /  0mm 0 W/m2
01:24 42.7 °F /  5.9 °C 42.4 °F /  5.8 °C 30.45in /  1031hPa North 1mph /  1.6km/h 2mph /  3.2km/h 99% 0.00in /  0mm 0 W/m2
01:29 42.6 °F /  5.9 °C 42.4 °F /  5.8 °C 30.45in /  1031hPa NNE 3mph /  4.8km/h 3.1mph /  5km/h 99% 0.00in /  0mm 0 W/m2
01:34 42.4 °F /  5.8 °C 42.2 °F /  5.7 °C 30.45in /  1031hPa NNE 3.8mph /  6.1km/h 4mph /  6.4km/h 99% 0.00in /  0mm 0 W/m2
01:39 42.4 °F /  5.8 °C 42.2 °F /  5.7 °C 30.45in /  1031hPa NE 2.4mph /  3.9km/h 5mph /  8km/h 99% 0.00in /  0mm 0 W/m2
01:44 42.2 °F /  5.7 °C 41.8 °F /  5.4 °C 30.45in /  1031hPa NNE 1.1mph /  1.8km/h 4mph /  6.4km/h 98.5% 0.00in /  0mm 0 W/m2
01:49 42 °F /  5.6 °C 41.5 °F /  5.3 °C 30.45in /  1031hPa North 2.2mph /  3.5km/h 2mph /  3.2km/h 98% 0.00in /  0mm 0 W/m2
01:54 41.8 °F /  5.4 °C 41.3 °F /  5.2 °C 30.45in /  1031hPa North 2mph /  3.2km/h 2mph /  3.2km/h 98% 0.00in /  0mm 0 W/m2
01:59 41.5 °F /  5.3 °C 41 °F /  5 °C 30.45in /  1031hPa North 1.9mph /  3.1km/h 2.2mph /  3.5km/h 98% 0.00in /  0mm 0 W/m2
02:04 41.4 °F /  5.2 °C 40.8 °F /  4.9 °C 30.45in /  1031hPa NNW 1mph /  1.6km/h 3mph /  4.8km/h 98% 0.00in /  0mm 0 W/m2
02:09 41.2 °F /  5.1 °C 40.8 °F /  4.9 °C 30.45in /  1031hPa North 2.3mph /  3.7km/h 2.9mph /  4.7km/h 98.7% 0.00in /  0mm 0 W/m2
02:14 41.2 °F /  5.1 °C 40.9 °F /  4.9 °C 30.45in /  1031hPa NE 4.4mph /  7.1km/h 4.5mph /  7.2km/h 99% 0.00in /  0mm 0 W/m2
02:19 41.2 °F /  5.1 °C 40.9 °F /  4.9 °C 30.45in /  1031hPa NE 3.1mph /  5km/h 6mph /  9.7km/h 99% 0.00in /  0mm 0 W/m2
02:24 41.1 °F /  5.1 °C 40.8 °F /  4.9 °C 30.44in /  1030.7hPa NE 3.3mph /  5.3km/h 3.6mph /  5.8km/h 99% 0.00in /  0mm 0 W/m2
02:29 41 °F /  5 °C 40.7 °F /  4.8 °C 30.44in /  1030.7hPa NE 3.6mph /  5.8km/h 5mph /  8km/h 99% 0.00in /  0mm 0 W/m2
02:34 40.9 °F /  4.9 °C 40.6 °F /  4.8 °C 30.44in /  1030.7hPa NE 2.5mph /  4km/h 4mph /  6.4km/h 99% 0.00in /  0mm 0 W/m2
02:39 40.6 °F /  4.8 °C 40.4 °F /  4.7 °C 30.45in /  1031hPa North 2.8mph /  4.5km/h 3mph /  4.8km/h 99% 0.00in /  0mm 0 W/m2
02:44 40.4 °F /  4.7 °C 40.1 °F /  4.5 °C 30.45in /  1031hPa WNW 2.6mph /  4.2km/h 3mph /  4.8km/h 99% 0.00in /  0mm 0 W/m2
02:49 40.1 °F /  4.5 °C 39.8 °F /  4.3 °C 30.45in /  1031hPa NW 1.9mph /  3.1km/h 3mph /  4.8km/h 99% 0.00in /  0mm 0 W/m2
02:54 40 °F /  4.4 °C 39.7 °F /  4.3 °C 30.45in /  1031hPa NNW 1.7mph /  2.7km/h 2mph /  3.2km/h 99% 0.00in /  0mm 0 W/m2
02:59 39.8 °F /  4.3 °C 39.6 °F /  4.2 °C 30.45in /  1031hPa NNW 0.8mph /  1.3km/h 2mph /  3.2km/h 99% 0.00in /  0mm 0 W/m2
03:04 39.7 °F /  4.3 °C 39.5 °F /  4.2 °C 30.45in /  1031hPa NNW 1.7mph /  2.7km/h 2mph /  3.2km/h 99% 0.00in /  0mm 0 W/m2
03:09 39.7 °F /  4.3 °C 39.4 °F /  4.1 °C 30.45in /  1031hPa NNW 1.1mph /  1.8km/h 2mph /  3.2km/h 99% 0.00in /  0mm 0 W/m2
03:14 39.4 °F /  4.1 °C 39.1 °F /  3.9 °C 30.45in /  1031hPa NW 1.9mph /  3.1km/h 1.8mph /  2.9km/h 99% 0.00in /  0mm 0 W/m2
03:19 39.1 °F /  3.9 °C 38.8 °F /  3.8 °C 30.45in /  1031hPa NW 3mph /  4.8km/h 2.5mph /  4km/h 99% 0.00in /  0mm 0 W/m2
03:24 38.9 °F /  3.8 °C 38.7 °F /  3.7 °C 30.45in /  1031hPa NW 1.9mph /  3.1km/h 3mph /  4.8km/h 99% 0.00in /  0mm 0 W/m2
03:29 38.8 °F /  3.8 °C 38.6 °F /  3.7 °C 30.45in /  1031hPa NNW 0.8mph /  1.3km/h 2mph /  3.2km/h 99% 0.00in /  0mm 0 W/m2
03:34 38.8 °F /  3.8 °C 38.5 °F /  3.6 °C 30.45in /  1031hPa NW 1.1mph /  1.8km/h 1mph /  1.6km/h 99% 0.00in /  0mm 0 W/m2
03:39 38.6 °F /  3.7 °C 38.3 °F /  3.5 °C 30.45in /  1031hPa SE 1.7mph /  2.7km/h 2mph /  3.2km/h 99% 0.00in /  0mm 0 W/m2
03:44 38.4 °F /  3.6 °C 38.1 °F /  3.4 °C 30.45in /  1031hPa ESE 2.2mph /  3.5km/h 2mph /  3.2km/h 99% 0.00in /  0mm 0 W/m2
03:49 38.2 °F /  3.4 °C 38 °F /  3.3 °C 30.45in /  1031hPa WNW 2.5mph /  4km/h 2.2mph /  3.5km/h 99% 0.00in /  0mm 0 W/m2
03:54 38.1 °F /  3.4 °C 37.9 °F /  3.3 °C 30.45in /  1031hPa WNW 2.9mph /  4.7km/h 4mph /  6.4km/h 99% 0.00in /  0mm 0 W/m2
03:59 38.1 °F /  3.4 °C 37.9 °F /  3.3 °C 30.45in /  1031hPa West 2.1mph /  3.4km/h 4mph /  6.4km/h 99% 0.00in /  0mm 0 W/m2
04:04 38.1 °F /  3.4 °C 37.9 °F /  3.3 °C 30.45in /  1031hPa West 0.7mph /  1.1km/h 2mph /  3.2km/h 99% 0.00in /  0mm 0 W/m2
04:09 38 °F /  3.3 °C 37.8 °F /  3.2 °C 30.45in /  1031hPa WNW 1.1mph /  1.8km/h 1mph /  1.6km/h 99% 0.00in /  0mm 0 W/m2
04:14 37.9 °F /  3.3 °C 37.6 °F /  3.1 °C 30.45in /  1031hPa WNW 1.8mph /  2.9km/h 1.6mph /  2.6km/h 99% 0.00in /  0mm 0 W/m2
04:19 37.7 °F /  3.2 °C 37.4 °F /  3 °C 30.45in /  1031hPa West 1.1mph /  1.8km/h 2mph /  3.2km/h 99% 0.00in /  0mm 0 W/m2
04:24 37.4 °F /  3 °C 37.1 °F /  2.8 °C 30.45in /  1031hPa NW 2.1mph /  3.4km/h 2mph /  3.2km/h 99% 0.00in /  0mm 0 W/m2
04:29 37.3 °F /  2.9 °C 37 °F /  2.8 °C 30.45in /  1031hPa NNW 2mph /  3.2km/h 3mph /  4.8km/h 99% 0.00in /  0mm 0 W/m2
04:34 37.2 °F /  2.9 °C 37 °F /  2.8 °C 30.45in /  1031hPa NNW 2mph /  3.2km/h 3mph /  4.8km/h 99% 0.00in /  0mm 0 W/m2
04:39 37 °F /  2.8 °C 36.8 °F /  2.7 °C 30.45in /  1031hPa NW 1.3mph /  2.1km/h 2mph /  3.2km/h 99% 0.00in /  0mm 0 W/m2
04:44 36.8 °F /  2.7 °C 36.5 °F /  2.5 °C 30.45in /  1031hPa NW 1.9mph /  3.1km/h 1.1mph /  1.8km/h 99% 0.00in /  0mm 0 W/m2
04:49 36.7 °F /  2.6 °C 36.4 °F /  2.4 °C 30.45in /  1031hPa WNW 1.5mph /  2.4km/h 2mph /  3.2km/h 99% 0.00in /  0mm 0 W/m2
04:54 36.7 °F /  2.6 °C 36.4 °F /  2.4 °C 30.45in /  1031hPa WNW 0.2mph /  0.3km/h 2mph /  3.2km/h 99% 0.00in /  0mm 0 W/m2
04:59 36.7 °F /  2.6 °C 36.4 °F /  2.4 °C 30.45in /  1031hPa West 2.1mph /  3.4km/h 2.2mph /  3.5km/h 99% 0.00in /  0mm 0 W/m2
05:04 36.7 °F /  2.6 °C 36.4 °F /  2.4 °C 30.45in /  1031hPa West 2.4mph /  3.9km/h 3mph /  4.8km/h 99% 0.00in /  0mm 0 W/m2
05:09 36.7 °F /  2.6 °C 36.4 °F /  2.4 °C 30.45in /  1031hPa WSW 1.5mph /  2.4km/h 3mph /  4.8km/h 99% 0.00in /  0mm 0 W/m2
05:14 36.7 °F /  2.6 °C 36.4 °F /  2.4 °C 30.45in /  1031hPa SW 0.8mph /  1.3km/h 2mph /  3.2km/h 99% 0.00in /  0mm 0 W/m2
05:19 36.7 °F /  2.6 °C 36.4 °F /  2.4 °C 30.46in /  1031.4hPa ESE 1.5mph /  2.4km/h 2mph /  3.2km/h 99% 0.00in /  0mm 0 W/m2
05:24 36.7 °F /  2.6 °C 36.4 °F /  2.4 °C 30.46in /  1031.4hPa NE 2mph /  3.2km/h 2mph /  3.2km/h 99% 0.00in /  0mm 0 W/m2
05:29 36.5 °F /  2.5 °C 36.2 °F /  2.3 °C 30.46in /  1031.4hPa North 0.8mph /  1.3km/h 2mph /  3.2km/h 99% 0.00in /  0mm 0 W/m2
05:34 36.3 °F /  2.4 °C 36.1 °F /  2.3 °C 30.45in /  1031hPa West 0.8mph /  1.3km/h 2mph /  3.2km/h 99% 0.00in /  0mm 0 W/m2
05:39 36.2 °F /  2.3 °C 36 °F /  2.2 °C 30.46in /  1031.4hPa NNE 0.1mph /  0.2km/h 1mph /  1.6km/h 99% 0.00in /  0mm 0 W/m2
05:44 36.1 °F /  2.3 °C 35.9 °F /  2.2 °C 30.45in /  1031hPa NE 2.2mph /  3.5km/h 2mph /  3.2km/h 99% 0.00in /  0mm 0 W/m2
05:49 36.2 °F /  2.3 °C 36 °F /  2.2 °C 30.46in /  1031.4hPa NE 1.4mph /  2.3km/h 2mph /  3.2km/h 99% 0.00in /  0mm 0 W/m2
05:54 36.1 °F /  2.3 °C 35.9 °F /  2.2 °C 30.46in /  1031.4hPa NE 2.5mph /  4km/h 2.2mph /  3.5km/h 99% 0.00in /  0mm 0 W/m2
05:59 36 °F /  2.2 °C 35.8 °F /  2.1 °C 30.45in /  1031hPa NE 1.5mph /  2.4km/h 3mph /  4.8km/h 99% 0.00in /  0mm 0 W/m2
06:04 35.9 °F /  2.2 °C 35.6 °F /  2 °C 30.45in /  1031hPa NNE 1.6mph /  2.6km/h 2mph /  3.2km/h 99% 0.00in /  0mm 0 W/m2
06:09 35.5 °F /  1.9 °C 35.3 °F /  1.8 °C 30.46in /  1031.4hPa NW 2.5mph /  4km/h 2.5mph /  4km/h 99% 0.00in /  0mm 0 W/m2
06:14 35.2 °F /  1.8 °C 35 °F /  1.7 °C 30.46in /  1031.4hPa WNW 2.8mph /  4.5km/h 3mph /  4.8km/h 99% 0.00in /  0mm 1 W/m2
06:19 35.2 °F /  1.8 °C 34.9 °F /  1.6 °C 30.46in /  1031.4hPa NNW 0.5mph /  0.8km/h 3mph /  4.8km/h 99% 0.00in /  0mm 3 W/m2
06:24 35.2 °F /  1.8 °C 35 °F /  1.7 °C 30.46in /  1031.4hPa North 0.2mph /  0.3km/h 1mph /  1.6km/h 99% 0.00in /  0mm 6 W/m2
06:29 35.2 °F /  1.8 °C 35 °F /  1.7 °C 30.46in /  1031.4hPa North 1.7mph /  2.7km/h 2mph /  3.2km/h 99% 0.00in /  0mm 9 W/m2
06:34 35.2 °F /  1.8 °C 35 °F /  1.7 °C 30.46in /  1031.4hPa NNE 3.4mph /  5.5km/h 3mph /  4.8km/h 99% 0.00in /  0mm 13 W/m2
06:39 35.4 °F /  1.9 °C 35.2 °F /  1.8 °C 30.46in /  1031.4hPa NNE 3.4mph /  5.5km/h 4mph /  6.4km/h 99% 0.00in /  0mm 18 W/m2
06:44 35.3 °F /  1.8 °C 35.1 °F /  1.7 °C 30.46in /  1031.4hPa NNE 1.9mph /  3.1km/h 4mph /  6.4km/h 99% 0.00in /  0mm 22 W/m2
06:49 35.2 °F /  1.8 °C 35 °F /  1.7 °C 30.46in /  1031.4hPa North 1.1mph /  1.8km/h 2mph /  3.2km/h 99% 0.00in /  0mm 25 W/m2
06:54 35.1 °F /  1.7 °C 34.9 °F /  1.6 °C 30.46in /  1031.4hPa NNW 0.6mph /  1km/h 2mph /  3.2km/h 99% 0.00in /  0mm 33 W/m2
06:59 35.2 °F /  1.8 °C 34.9 °F /  1.6 °C 30.46in /  1031.4hPa North 2.5mph /  4km/h 2.2mph /  3.5km/h 99% 0.00in /  0mm 39 W/m2
07:04 35.2 °F /  1.8 °C 35 °F /  1.7 °C 30.46in /  1031.4hPa North 2.2mph /  3.5km/h 3mph /  4.8km/h 99% 0.00in /  0mm 40 W/m2
07:09 34.9 °F /  1.6 °C 34.6 °F /  1.4 °C 30.46in /  1031.4hPa NW 3.4mph /  5.5km/h 4mph /  6.4km/h 99% 0.00in /  0mm 39 W/m2
07:14 34.9 °F /  1.6 °C 34.6 °F /  1.4 °C 30.46in /  1031.4hPa WNW 4.1mph /  6.6km/h 5mph /  8km/h 99% 0.00in /  0mm 39 W/m2
07:19 35.1 °F /  1.7 °C 34.8 °F /  1.6 °C 30.47in /  1031.7hPa West 2.6mph /  4.2km/h 5mph /  8km/h 99% 0.00in /  0mm 45 W/m2
07:24 35.2 °F /  1.8 °C 34.9 °F /  1.6 °C 30.46in /  1031.4hPa West 2.4mph /  3.9km/h 3mph /  4.8km/h 99% 0.00in /  0mm 53 W/m2
07:29 35.2 °F /  1.8 °C 35 °F /  1.7 °C 30.47in /  1031.7hPa West 3.4mph /  5.5km/h 3mph /  4.8km/h 99% 0.00in /  0mm 53 W/m2
07:34 35.2 °F /  1.8 °C 35 °F /  1.7 °C 30.47in /  1031.7hPa West 3.4mph /  5.5km/h 4mph /  6.4km/h 99% 0.00in /  0mm 50 W/m2
07:39 35.5 °F /  1.9 °C 35.3 °F /  1.8 °C 30.46in /  1031.4hPa NNW 4.2mph /  6.8km/h 4.2mph /  6.8km/h 99% 0.00in /  0mm 53 W/m2
07:44 36.3 °F /  2.4 °C 36 °F /  2.2 °C 30.46in /  1031.4hPa NNE 3.3mph /  5.3km/h 6mph /  9.7km/h 99% 0.00in /  0mm 63 W/m2
07:49 36.6 °F /  2.6 °C 36.3 °F /  2.4 °C 30.46in /  1031.4hPa NE 2.3mph /  3.7km/h 4mph /  6.4km/h 99% 0.00in /  0mm 63 W/m2
07:54 36.5 °F /  2.5 °C 36.2 °F /  2.3 °C 30.46in /  1031.4hPa NNW 1.7mph /  2.7km/h 2mph /  3.2km/h 99% 0.00in /  0mm 62 W/m2
07:59 36.5 °F /  2.5 °C 36.2 °F /  2.3 °C 30.46in /  1031.4hPa West 0.5mph /  0.8km/h 2mph /  3.2km/h 99% 0.00in /  0mm 68 W/m2
08:04 36.7 °F /  2.6 °C 36.4 °F /  2.4 °C 30.46in /  1031.4hPa WNW 2mph /  3.2km/h 2.5mph /  4km/h 99% 0.00in /  0mm 69 W/m2
08:09 36.9 °F /  2.7 °C 36.7 °F /  2.6 °C 30.46in /  1031.4hPa West 3.4mph /  5.5km/h 3mph /  4.8km/h 99% 0.00in /  0mm 66 W/m2
08:14 37.1 °F /  2.8 °C 36.9 °F /  2.7 °C 30.46in /  1031.4hPa West 3.4mph /  5.5km/h 3mph /  4.8km/h 99% 0.00in /  0mm 74 W/m2
08:19 37.5 °F /  3.1 °C 37.2 °F /  2.9 °C 30.46in /  1031.4hPa WNW 3.9mph /  6.3km/h 3mph /  4.8km/h 99% 0.00in /  0mm 85 W/m2
08:24 37.8 °F /  3.2 °C 37.5 °F /  3.1 °C 30.46in /  1031.4hPa WNW 0.5mph /  0.8km/h 6mph /  9.7km/h 99% 0.00in /  0mm 88 W/m2
08:29 38.1 °F /  3.4 °C 37.9 °F /  3.3 °C 30.46in /  1031.4hPa NW 2mph /  3.2km/h 1.8mph /  2.9km/h 99% 0.00in /  0mm 94 W/m2
08:34 38.5 °F /  3.6 °C 38.2 °F /  3.4 °C 30.46in /  1031.4hPa WNW 1.3mph /  2.1km/h 3mph /  4.8km/h 99% 0.00in /  0mm 92 W/m2
08:39 38.8 °F /  3.8 °C 38.6 °F /  3.7 °C 30.46in /  1031.4hPa NNW 1.3mph /  2.1km/h 2mph /  3.2km/h 99% 0.00in /  0mm 110 W/m2
08:44 39.3 °F /  4.1 °C 39.1 °F /  3.9 °C 30.46in /  1031.4hPa NNE 3.5mph /  5.6km/h 3.6mph /  5.8km/h 99% 0.00in /  0mm 110 W/m2
08:49 39.8 °F /  4.3 °C 39.6 °F /  4.2 °C 30.46in /  1031.4hPa NE 3.5mph /  5.6km/h 5mph /  8km/h 99% 0.00in /  0mm 100 W/m2
08:54 40.2 °F /  4.6 °C 39.9 °F /  4.4 °C 30.46in /  1031.4hPa NE 3.9mph /  6.3km/h 5mph /  8km/h 99% 0.00in /  0mm 109 W/m2
08:59 40.3 °F /  4.6 °C 40 °F /  4.4 °C 30.46in /  1031.4hPa NE 1.3mph /  2.1km/h 5mph /  8km/h 99% 0.00in /  0mm 109 W/m2
09:04 40.3 °F /  4.6 °C 40 °F /  4.4 °C 30.46in /  1031.4hPa NNE 2.1mph /  3.4km/h 2mph /  3.2km/h 99% 0.00in /  0mm 162 W/m2
09:09 40.5 °F /  4.7 °C 40.3 °F /  4.6 °C 30.46in /  1031.4hPa NNE 2.5mph /  4km/h 2mph /  3.2km/h 99% 0.00in /  0mm 142 W/m2
09:14 41 °F /  5 °C 40.7 °F /  4.8 °C 30.46in /  1031.4hPa NE 3.4mph /  5.5km/h 3mph /  4.8km/h 99% 0.00in /  0mm 238 W/m2
09:19 41.5 °F /  5.3 °C 41.2 °F /  5.1 °C 30.45in /  1031hPa NE 3.4mph /  5.5km/h 5mph /  8km/h 99% 0.00in /  0mm 251 W/m2
09:24 41.8 °F /  5.4 °C 41.6 °F /  5.3 °C 30.45in /  1031hPa NE 2.7mph /  4.3km/h 5mph /  8km/h 99% 0.00in /  0mm 188 W/m2
09:29 41.8 °F /  5.4 °C 41.5 °F /  5.3 °C 30.45in /  1031hPa ENE 1.4mph /  2.3km/h 3mph /  4.8km/h 99% 0.00in /  0mm 179 W/m2
09:34 41.9 °F /  5.5 °C 41.6 °F /  5.3 °C 30.45in /  1031hPa ENE 1.7mph /  2.7km/h 2mph /  3.2km/h 99% 0.00in /  0mm 203 W/m2
09:39 42.2 °F /  5.7 °C 41.9 °F /  5.5 °C 30.45in /  1031hPa NNE 1.6mph /  2.6km/h 2mph /  3.2km/h 99% 0.00in /  0mm 212 W/m2
09:44 42.5 °F /  5.8 °C 42.3 °F /  5.7 °C 30.45in /  1031hPa NNE 3.5mph /  5.6km/h 3.4mph /  5.5km/h 99% 0.00in /  0mm 265 W/m2
09:49 43 °F /  6.1 °C 42.7 °F /  5.9 °C 30.45in /  1031hPa NE 5.3mph /  8.5km/h 6mph /  9.7km/h 99% 0.00in /  0mm 324 W/m2
09:54 43.4 °F /  6.3 °C 43.2 °F /  6.2 °C 30.45in /  1031hPa NE 4.1mph /  6.6km/h 6mph /  9.7km/h 99% 0.00in /  0mm 282 W/m2
09:59 43.7 °F /  6.5 °C 43.4 °F /  6.3 °C 30.45in /  1031hPa NE 2.1mph /  3.4km/h 5mph /  8km/h 99% 0.00in /  0mm 353 W/m2
10:04 43.9 °F /  6.6 °C 43.6 °F /  6.4 °C 30.45in /  1031hPa ENE 2.3mph /  3.7km/h 4mph /  6.4km/h 99% 0.00in /  0mm 480 W/m2
10:09 45 °F /  7.2 °C 44.7 °F /  7.1 °C 30.45in /  1031hPa SSE 2.5mph /  4km/h 3mph /  4.8km/h 99% 0.00in /  0mm 480 W/m2
10:14 45.5 °F /  7.5 °C 45.2 °F /  7.3 °C 30.45in /  1031hPa SE 2.7mph /  4.3km/h 3mph /  4.8km/h 99% 0.00in /  0mm 477 W/m2
10:19 46.2 °F /  7.9 °C 45.9 °F /  7.7 °C 30.45in /  1031hPa NE 2.2mph /  3.5km/h 4mph /  6.4km/h 99% 0.00in /  0mm 456 W/m2
10:24 46.8 °F /  8.2 °C 46.6 °F /  8.1 °C 30.45in /  1031hPa NNW 3.1mph /  5km/h 3mph /  4.8km/h 99% 0.00in /  0mm 440 W/m2
10:29 47.2 °F /  8.4 °C 46.7 °F /  8.2 °C 30.45in /  1031hPa South 3.2mph /  5.1km/h 4mph /  6.4km/h 98.1% 0.00in /  0mm 456 W/m2
10:34 47.6 °F /  8.7 °C 46.7 °F /  8.2 °C 30.45in /  1031hPa East 3.8mph /  6.1km/h 4mph /  6.4km/h 96.4% 0.00in /  0mm 466 W/m2
10:39 47.5 °F /  8.6 °C 46.4 °F /  8 °C 30.44in /  1030.7hPa SE 3.3mph /  5.3km/h 6mph /  9.7km/h 96% 0.00in /  0mm 463 W/m2
10:44 47.8 °F /  8.8 °C 46.7 °F /  8.2 °C 30.44in /  1030.7hPa ESE 4.7mph /  7.6km/h 4mph /  6.4km/h 96% 0.00in /  0mm 476 W/m2
10:49 48.4 °F /  9.1 °C 47.1 °F /  8.4 °C 30.44in /  1030.7hPa East 4.6mph /  7.4km/h 6mph /  9.7km/h 95.2% 0.00in /  0mm 470 W/m2
10:54 48.7 °F /  9.3 °C 47.3 °F /  8.5 °C 30.44in /  1030.7hPa SE 3.5mph /  5.6km/h 5mph /  8km/h 94.7% 0.00in /  0mm 478 W/m2
10:59 49.3 °F /  9.6 °C 47.7 °F /  8.7 °C 30.44in /  1030.7hPa East 2.6mph /  4.2km/h 4mph /  6.4km/h 94% 0.00in /  0mm 479 W/m2
11:04 50.1 °F /  10.1 °C 48.2 °F /  9 °C 30.43in /  1030.4hPa East 3.4mph /  5.5km/h 4mph /  6.4km/h 93.2% 0.00in /  0mm 481 W/m2
11:09 50.6 °F /  10.3 °C 48.4 °F /  9.1 °C 30.43in /  1030.4hPa SSW 3.9mph /  6.3km/h 4mph /  6.4km/h 92.1% 0.00in /  0mm 484 W/m2
11:14 51.1 °F /  10.6 °C 48.4 °F /  9.1 °C 30.43in /  1030.4hPa SSW 4.7mph /  7.6km/h 6mph /  9.7km/h 90.6% 0.00in /  0mm 487 W/m2
11:19 51.2 °F /  10.7 °C 48.3 °F /  9.1 °C 30.43in /  1030.4hPa South 3.3mph /  5.3km/h 6mph /  9.7km/h 90% 0.00in /  0mm 483 W/m2
11:24 51.9 °F /  11.1 °C 49 °F /  9.4 °C 30.43in /  1030.4hPa SSW 3.6mph /  5.8km/h 4mph /  6.4km/h 90% 0.00in /  0mm 480 W/m2
11:29 52.2 °F /  11.2 °C 49.1 °F /  9.5 °C 30.43in /  1030.4hPa SSW 3.4mph /  5.5km/h 5mph /  8km/h 89% 0.00in /  0mm 479 W/m2
11:34 52.8 °F /  11.6 °C 49.4 °F /  9.7 °C 30.42in /  1030hPa SSW 3.5mph /  5.6km/h 6mph /  9.7km/h 88.3% 0.00in /  0mm 462 W/m2
11:39 53.2 °F /  11.8 °C 49.4 °F /  9.7 °C 30.42in /  1030hPa South 3.6mph /  5.8km/h 4mph /  6.4km/h 86.7% 0.00in /  0mm 409 W/m2
11:44 53.6 °F /  12 °C 49.5 °F /  9.7 °C 30.42in /  1030hPa SSE 4.1mph /  6.6km/h 5mph /  8km/h 86% 0.00in /  0mm 429 W/m2
11:49 54.1 °F /  12.3 °C 49.8 °F /  9.9 °C 30.42in /  1030hPa NNE 2.5mph /  4km/h 5mph /  8km/h 85.3% 0.00in /  0mm 263 W/m2
11:54 54.8 °F /  12.7 °C 50.2 °F /  10.1 °C 30.42in /  1030hPa NW 2.6mph /  4.2km/h 2.2mph /  3.5km/h 84.6% 0.00in /  0mm 365 W/m2
11:59 55.3 °F /  12.9 °C 50.6 °F /  10.3 °C 30.41in /  1029.7hPa SW 3.1mph /  5km/h 3mph /  4.8km/h 84.1% 0.00in /  0mm 357 W/m2
12:04 55.8 °F /  13.2 °C 50.5 °F /  10.3 °C 30.41in /  1029.7hPa WNW 4.3mph /  6.9km/h 5mph /  8km/h 82.5% 0.00in /  0mm 320 W/m2
12:09 56.5 °F /  13.6 °C 50.6 °F /  10.3 °C 30.41in /  1029.7hPa NNE 4.4mph /  7.1km/h 5mph /  8km/h 80.6% 0.00in /  0mm 326 W/m2
12:14 57.3 °F /  14.1 °C 51.1 °F /  10.6 °C 30.41in /  1029.7hPa North 6.2mph /  10km/h 5.8mph /  9.3km/h 79.8% 0.00in /  0mm 338 W/m2
12:19 57.8 °F /  14.3 °C 51.3 °F /  10.7 °C 30.41in /  1029.7hPa North 5.2mph /  8.4km/h 8mph /  12.9km/h 79.1% 0.00in /  0mm 386 W/m2
12:24 58.2 °F /  14.6 °C 51.5 °F /  10.8 °C 30.40in /  1029.3hPa North 6.6mph /  10.6km/h 7mph /  11.3km/h 78.5% 0.00in /  0mm 318 W/m2
12:29 58.3 °F /  14.6 °C 51.4 °F /  10.8 °C 30.40in /  1029.3hPa North 6mph /  9.7km/h 8mph /  12.9km/h 77.9% 0.00in /  0mm 393 W/m2
12:34 58.5 °F /  14.7 °C 51.6 °F /  10.9 °C 30.40in /  1029.3hPa North 8mph /  12.9km/h 7mph /  11.3km/h 78% 0.00in /  0mm 353 W/m2
12:39 58.6 °F /  14.8 °C 51.6 °F /  10.9 °C 30.40in /  1029.3hPa North 7.4mph /  11.9km/h 11mph /  17.7km/h 77.5% 0.00in /  0mm 415 W/m2
12:44 58.7 °F /  14.8 °C 51.5 °F /  10.8 °C 30.40in /  1029.3hPa North 8.1mph /  13km/h 8mph /  12.9km/h 77.1% 0.00in /  0mm 427 W/m2
12:49 58.8 °F /  14.9 °C 51.6 °F /  10.9 °C 30.40in /  1029.3hPa North 8.5mph /  13.7km/h 10mph /  16.1km/h 77% 0.00in /  0mm 425 W/m2
12:54 58.8 °F /  14.9 °C 51.6 °F /  10.9 °C 30.40in /  1029.3hPa North 8.2mph /  13.2km/h 9mph /  14.5km/h 77% 0.00in /  0mm 412 W/m2
12:59 58.9 °F /  14.9 °C 51.6 °F /  10.9 °C 30.40in /  1029.3hPa North 9.8mph /  15.8km/h 11mph /  17.7km/h 76.7% 0.00in /  0mm 401 W/m2
13:04 59.1 °F /  15.1 °C 51.3 °F /  10.7 °C 30.39in /  1029hPa NNE 10.9mph /  17.5km/h 11mph /  17.7km/h 75.2% 0.00in /  0mm 393 W/m2
13:09 59.1 °F /  15.1 °C 51.2 °F /  10.7 °C 30.39in /  1029hPa North 8.1mph /  13km/h 12mph /  19.3km/h 75% 0.00in /  0mm 386 W/m2
13:14 59 °F /  15 °C 51.1 °F /  10.6 °C 30.39in /  1029hPa North 9.1mph /  14.6km/h 12mph /  19.3km/h 75% 0.00in /  0mm 371 W/m2
13:19 59.1 °F /  15.1 °C 51.2 °F /  10.7 °C 30.39in /  1029hPa NNE 8.6mph /  13.8km/h 12mph /  19.3km/h 75% 0.00in /  0mm 363 W/m2
13:24 59.2 °F /  15.1 °C 51.3 °F /  10.7 °C 30.39in /  1029hPa NNE 7.1mph /  11.4km/h 9mph /  14.5km/h 75% 0.00in /  0mm 354 W/m2
13:29 59.3 °F /  15.2 °C 51.4 °F /  10.8 °C 30.39in /  1029hPa North 7.3mph /  11.7km/h 7mph /  11.3km/h 75% 0.00in /  0mm 345 W/m2
13:34 59.5 °F /  15.3 °C 51.5 °F /  10.8 °C 30.38in /  1028.7hPa North 8mph /  12.9km/h 8mph /  12.9km/h 75% 0.00in /  0mm 334 W/m2
13:39 59.5 °F /  15.3 °C 51.6 °F /  10.9 °C 30.38in /  1028.7hPa NNE 8.5mph /  13.7km/h 9mph /  14.5km/h 75% 0.00in /  0mm 326 W/m2
13:44 59.4 °F /  15.2 °C 51.4 °F /  10.8 °C 30.38in /  1028.7hPa NNE 7.1mph /  11.4km/h 9mph /  14.5km/h 75% 0.00in /  0mm 313 W/m2
13:49 59.3 °F /  15.2 °C 51.3 °F /  10.7 °C 30.38in /  1028.7hPa North 6.7mph /  10.8km/h 7mph /  11.3km/h 75% 0.00in /  0mm 302 W/m2
13:54 59.3 °F /  15.2 °C 51.4 °F /  10.8 °C 30.38in /  1028.7hPa North 7.5mph /  12.1km/h 8mph /  12.9km/h 75% 0.00in /  0mm 286 W/m2
13:59 59.4 °F /  15.2 °C 51.4 °F /  10.8 °C 30.38in /  1028.7hPa North 6.3mph /  10.1km/h 8mph /  12.9km/h 75% 0.00in /  0mm 275 W/m2
14:04 59.4 °F /  15.2 °C 51.4 °F /  10.8 °C 30.38in /  1028.7hPa North 6.3mph /  10.1km/h 7mph /  11.3km/h 75% 0.00in /  0mm 263 W/m2
14:09 59.3 °F /  15.2 °C 51.3 °F /  10.7 °C 30.38in /  1028.7hPa North 7.8mph /  12.6km/h 7mph /  11.3km/h 75% 0.00in /  0mm 249 W/m2
14:14 59.2 °F /  15.1 °C 51.3 °F /  10.7 °C 30.38in /  1028.7hPa North 7.4mph /  11.9km/h 9mph /  14.5km/h 75% 0.00in /  0mm 238 W/m2
14:19 59.2 °F /  15.1 °C 51.3 °F /  10.7 °C 30.38in /  1028.7hPa North 5.4mph /  8.7km/h 9mph /  14.5km/h 75% 0.00in /  0mm 225 W/m2
14:24 59 °F /  15 °C 51.1 °F /  10.6 °C 30.38in /  1028.7hPa North 8mph /  12.9km/h 7mph /  11.3km/h 75% 0.00in /  0mm 215 W/m2
14:29 58.8 °F /  14.9 °C 50.9 °F /  10.5 °C 30.38in /  1028.7hPa North 7.4mph /  11.9km/h 9mph /  14.5km/h 75% 0.00in /  0mm 199 W/m2
14:34 58.8 °F /  14.9 °C 50.9 °F /  10.5 °C 30.38in /  1028.7hPa North 5.8mph /  9.3km/h 8mph /  12.9km/h 75% 0.00in /  0mm 190 W/m2
14:39 58.6 °F /  14.8 °C 50.9 °F /  10.5 °C 30.38in /  1028.7hPa North 7.9mph /  12.7km/h 6mph /  9.7km/h 75.5% 0.00in /  0mm 177 W/m2
14:44 58.5 °F /  14.7 °C 51.2 °F /  10.7 °C 30.38in /  1028.7hPa North 5.3mph /  8.5km/h 10mph /  16.1km/h 76.8% 0.00in /  0mm 162 W/m2
14:49 58.2 °F /  14.6 °C 51 °F /  10.6 °C 30.38in /  1028.7hPa NNE 7.4mph /  11.9km/h 7mph /  11.3km/h 77% 0.00in /  0mm 151 W/m2
14:54 57.9 °F /  14.4 °C 50.8 °F /  10.4 °C 30.38in /  1028.7hPa North 6.5mph /  10.5km/h 8mph /  12.9km/h 77% 0.00in /  0mm 140 W/m2
14:59 57.7 °F /  14.3 °C 50.8 °F /  10.4 °C 30.38in /  1028.7hPa North 7mph /  11.3km/h 10mph /  16.1km/h 77.5% 0.00in /  0mm 129 W/m2
15:04 57.6 °F /  14.2 °C 50.8 °F /  10.4 °C 30.37in /  1028.3hPa North 9.1mph /  14.6km/h 8mph /  12.9km/h 78% 0.00in /  0mm 113 W/m2
15:09 57.3 °F /  14.1 °C 50.5 °F /  10.3 °C 30.38in /  1028.7hPa NNE 8.7mph /  14km/h 12mph /  19.3km/h 78% 0.00in /  0mm 100 W/m2
15:14 56.9 °F /  13.8 °C 50.4 °F /  10.2 °C 30.38in /  1028.7hPa North 7.6mph /  12.2km/h 9mph /  14.5km/h 78.8% 0.00in /  0mm 89 W/m2
15:19 56.8 °F /  13.8 °C 50.3 °F /  10.2 °C 30.38in /  1028.7hPa North 6.6mph /  10.6km/h 10mph /  16.1km/h 79% 0.00in /  0mm 77 W/m2
15:24 56.5 °F /  13.6 °C 50.3 °F /  10.2 °C 30.38in /  1028.7hPa North 5.8mph /  9.3km/h 8mph /  12.9km/h 79.5% 0.00in /  0mm 69 W/m2
15:29 56.2 °F /  13.4 °C 50.1 °F /  10.1 °C 30.38in /  1028.7hPa North 5.6mph /  9km/h 8mph /  12.9km/h 80% 0.00in /  0mm 57 W/m2
15:34 55.9 °F /  13.3 °C 49.9 °F /  9.9 °C 30.38in /  1028.7hPa North 4.8mph /  7.7km/h 6mph /  9.7km/h 80.2% 0.00in /  0mm 48 W/m2
15:39 55.5 °F /  13.1 °C 49.8 °F /  9.9 °C 30.38in /  1028.7hPa North 5mph /  8km/h 6mph /  9.7km/h 81% 0.00in /  0mm 42 W/m2
15:44 55.3 °F /  12.9 °C 49.6 °F /  9.8 °C 30.38in /  1028.7hPa North 4.2mph /  6.8km/h 6mph /  9.7km/h 81% 0.00in /  0mm 32 W/m2
15:49 55 °F /  12.8 °C 50 °F /  10 °C 30.38in /  1028.7hPa North 4.5mph /  7.2km/h 5mph /  8km/h 82.9% 0.00in /  0mm 26 W/m2
15:54 54.8 °F /  12.7 °C 49.7 °F /  9.8 °C 30.38in /  1028.7hPa North 3.9mph /  6.3km/h 6mph /  9.7km/h 83% 0.00in /  0mm 20 W/m2
15:59 54.6 °F /  12.6 °C 49.5 °F /  9.7 °C 30.38in /  1028.7hPa North 3.1mph /  5km/h 5mph /  8km/h 83% 0.00in /  0mm 15 W/m2
16:04 54.2 °F /  12.3 °C 49.4 °F /  9.7 °C 30.38in /  1028.7hPa North 2.7mph /  4.3km/h 4mph /  6.4km/h 83.9% 0.00in /  0mm 11 W/m2
16:09 54 °F /  12.2 °C 49.2 °F /  9.6 °C 30.38in /  1028.7hPa NNW 3.3mph /  5.3km/h 5mph /  8km/h 84% 0.00in /  0mm 7 W/m2
16:14 53.6 °F /  12 °C 48.9 °F /  9.4 °C 30.38in /  1028.7hPa North 2.3mph /  3.7km/h 3mph /  4.8km/h 84% 0.00in /  0mm 4 W/m2
16:19 53.3 °F /  11.8 °C 48.7 °F /  9.3 °C 30.38in /  1028.7hPa NNW 2.1mph /  3.4km/h 3mph /  4.8km/h 84.4% 0.00in /  0mm 2 W/m2
16:24 53 °F /  11.7 °C 48.6 °F /  9.2 °C 30.38in /  1028.7hPa NNW 3.5mph /  5.6km/h 3.1mph /  5km/h 85% 0.00in /  0mm 1 W/m2
16:29 52.6 °F /  11.4 °C 48.2 °F /  9 °C 30.38in /  1028.7hPa North 3.4mph /  5.5km/h 5mph /  8km/h 85% 0.00in /  0mm 0 W/m2
16:34 52.3 °F /  11.3 °C 48.3 °F /  9.1 °C 30.38in /  1028.7hPa North 3.3mph /  5.3km/h 4mph /  6.4km/h 85.8% 0.00in /  0mm 0 W/m2
16:39 52.1 °F /  11.2 °C 48 °F /  8.9 °C 30.38in /  1028.7hPa North 3.5mph /  5.6km/h 3.6mph /  5.8km/h 86% 0.00in /  0mm 0 W/m2
16:44 51.9 °F /  11.1 °C 47.8 °F /  8.8 °C 30.38in /  1028.7hPa North 3.8mph /  6.1km/h 5mph /  8km/h 86% 0.00in /  0mm 0 W/m2
16:49 51.6 °F /  10.9 °C 48 °F /  8.9 °C 30.38in /  1028.7hPa North 4.5mph /  7.2km/h 5mph /  8km/h 87.5% 0.00in /  0mm 0 W/m2
16:54 51.4 °F /  10.8 °C 48 °F /  8.9 °C 30.38in /  1028.7hPa North 4.8mph /  7.7km/h 5mph /  8km/h 88% 0.00in /  0mm 0 W/m2
16:59 51.3 °F /  10.7 °C 47.9 °F /  8.8 °C 30.38in /  1028.7hPa North 3.7mph /  6km/h 6mph /  9.7km/h 88.2% 0.00in /  0mm 0 W/m2
17:04 51 °F /  10.6 °C 47.9 °F /  8.8 °C 30.38in /  1028.7hPa North 4.8mph /  7.7km/h 6mph /  9.7km/h 89% 0.00in /  0mm 0 W/m2
17:09 50.8 °F /  10.4 °C 47.8 °F /  8.8 °C 30.38in /  1028.7hPa North 4.9mph /  7.9km/h 5mph /  8km/h 89.4% 0.00in /  0mm 0 W/m2
17:14 50.6 °F /  10.3 °C 47.8 °F /  8.8 °C 30.38in /  1028.7hPa North 4.4mph /  7.1km/h 6mph /  9.7km/h 90% 0.00in /  0mm 0 W/m2
17:19 50.5 °F /  10.3 °C 47.7 °F /  8.7 °C 30.39in /  1029hPa North 3.3mph /  5.3km/h 5mph /  8km/h 90% 0.00in /  0mm 0 W/m2
17:24 50.4 °F /  10.2 °C 47.6 °F /  8.7 °C 30.38in /  1028.7hPa North 3.4mph /  5.5km/h 4mph /  6.4km/h 90% 0.00in /  0mm 0 W/m2
17:29 50.2 °F /  10.1 °C 47.4 °F /  8.6 °C 30.38in /  1028.7hPa North 3mph /  4.8km/h 4mph /  6.4km/h 90% 0.00in /  0mm 0 W/m2
17:34 50 °F /  10 °C 47.5 °F /  8.6 °C 30.39in /  1029hPa North 3mph /  4.8km/h 3mph /  4.8km/h 90.8% 0.00in /  0mm 0 W/m2
17:39 49.7 °F /  9.8 °C 47.2 °F /  8.4 °C 30.39in /  1029hPa North 3.4mph /  5.5km/h 3mph /  4.8km/h 91% 0.00in /  0mm 0 W/m2
17:44 49.6 °F /  9.8 °C 47.3 °F /  8.5 °C 30.39in /  1029hPa North 2.8mph /  4.5km/h 4mph /  6.4km/h 91.8% 0.00in /  0mm 0 W/m2
17:49 49.3 °F /  9.6 °C 46.9 °F /  8.3 °C 30.39in /  1029hPa North 1.3mph /  2.1km/h 4mph /  6.4km/h 91.5% 0.00in /  0mm 0 W/m2
17:54 48.8 °F /  9.3 °C 46.1 °F /  7.8 °C 30.39in /  1029hPa North 0.7mph /  1.1km/h 2mph /  3.2km/h 90.3% 0.00in /  0mm 0 W/m2
17:59 48.5 °F /  9.2 °C 46 °F /  7.8 °C 30.39in /  1029hPa South 1.2mph /  1.9km/h 1mph /  1.6km/h 91% 0.00in /  0mm 0 W/m2
18:04 47.8 °F /  8.8 °C 45.3 °F /  7.4 °C 30.40in /  1029.3hPa SW 1.4mph /  2.3km/h 2mph /  3.2km/h 91% 0.00in /  0mm 0 W/m2
18:09 47.7 °F /  8.7 °C 45.2 °F /  7.3 °C 30.40in /  1029.3hPa West 1mph /  1.6km/h 2mph /  3.2km/h 91% 0.00in /  0mm 0 W/m2
18:14 47.5 °F /  8.6 °C 45.2 °F /  7.3 °C 30.39in /  1029hPa West 1.2mph /  1.9km/h 1mph /  1.6km/h 91.8% 0.00in /  0mm 0 W/m2
18:19 47.2 °F /  8.4 °C 45.3 °F /  7.4 °C 30.40in /  1029.3hPa NW 1.6mph /  2.6km/h 2.2mph /  3.5km/h 93% 0.00in /  0mm 0 W/m2
18:24 46.9 °F /  8.3 °C 44.9 °F /  7.2 °C 30.40in /  1029.3hPa WNW 2.9mph /  4.7km/h 3mph /  4.8km/h 93% 0.00in /  0mm 0 W/m2
18:29 46.5 °F /  8.1 °C 44.6 °F /  7 °C 30.40in /  1029.3hPa West 1.1mph /  1.8km/h 3mph /  4.8km/h 93% 0.00in /  0mm 0 W/m2
18:34 46.2 °F /  7.9 °C 44.3 °F /  6.8 °C 30.40in /  1029.3hPa WNW 2mph /  3.2km/h 2mph /  3.2km/h 93% 0.00in /  0mm 0 W/m2
18:39 45.8 °F /  7.7 °C 44.1 °F /  6.7 °C 30.40in /  1029.3hPa West 2.3mph /  3.7km/h 2mph /  3.2km/h 93.4% 0.00in /  0mm 0 W/m2
18:44 45.7 °F /  7.6 °C 44.3 °F /  6.8 °C 30.40in /  1029.3hPa SW 2.4mph /  3.9km/h 3mph /  4.8km/h 94.9% 0.00in /  0mm 0 W/m2
18:49 45.5 °F /  7.5 °C 44.2 °F /  6.8 °C 30.40in /  1029.3hPa WSW 1.5mph /  2.4km/h 2mph /  3.2km/h 95% 0.00in /  0mm 0 W/m2
18:54 45.5 °F /  7.5 °C 44.3 °F /  6.8 °C 30.40in /  1029.3hPa North 3.1mph /  5km/h 2.2mph /  3.5km/h 95.8% 0.00in /  0mm 0 W/m2
18:59 45.2 °F /  7.3 °C 43.8 °F /  6.6 °C 30.40in /  1029.3hPa West 2.4mph /  3.9km/h 4mph /  6.4km/h 94.8% 0.00in /  0mm 0 W/m2
19:04 45 °F /  7.2 °C 43.6 °F /  6.4 °C 30.39in /  1029hPa NW 1.6mph /  2.6km/h 4mph /  6.4km/h 94.9% 0.00in /  0mm 0 W/m2
19:09 44.7 °F /  7.1 °C 43.4 °F /  6.3 °C 30.40in /  1029.3hPa North 1.2mph /  1.9km/h 2mph /  3.2km/h 95% 0.00in /  0mm 0 W/m2
19:14 44.3 °F /  6.8 °C 43 °F /  6.1 °C 30.40in /  1029.3hPa WNW 0.8mph /  1.3km/h 2mph /  3.2km/h 95% 0.00in /  0mm 0 W/m2
19:19 44.1 °F /  6.7 °C 42.7 °F /  5.9 °C 30.40in /  1029.3hPa WNW 0.7mph /  1.1km/h 2mph /  3.2km/h 95% 0.00in /  0mm 0 W/m2
19:24 43.8 °F /  6.6 °C 42.5 °F /  5.8 °C 30.40in /  1029.3hPa North 0.3mph /  0.5km/h 2mph /  3.2km/h 95% 0.00in /  0mm 0 W/m2
19:29 43.5 °F /  6.4 °C 42.3 °F /  5.7 °C 30.40in /  1029.3hPa NNW 2.1mph /  3.4km/h 2mph /  3.2km/h 95.2% 0.00in /  0mm 0 W/m2
19:34 43.3 °F /  6.3 °C 42 °F /  5.6 °C 30.40in /  1029.3hPa NNW 1.5mph /  2.4km/h 3mph /  4.8km/h 95% 0.00in /  0mm 0 W/m2
19:39 43 °F /  6.1 °C 41.7 °F /  5.4 °C 30.40in /  1029.3hPa NNW 2.5mph /  4km/h 2.5mph /  4km/h 95% 0.00in /  0mm 0 W/m2
19:44 42.8 °F /  6 °C 41.5 °F /  5.3 °C 30.40in /  1029.3hPa NW 2mph /  3.2km/h 3mph /  4.8km/h 95% 0.00in /  0mm 0 W/m2
19:49 42.5 °F /  5.8 °C 41.4 °F /  5.2 °C 30.40in /  1029.3hPa NNW 2mph /  3.2km/h 2mph /  3.2km/h 95.6% 0.00in /  0mm 0 W/m2
19:54 42.3 °F /  5.7 °C 41 °F /  5 °C 30.40in /  1029.3hPa NNW 1.3mph /  2.1km/h 2mph /  3.2km/h 95.3% 0.00in /  0mm 0 W/m2
19:59 42 °F /  5.6 °C 40.9 °F /  4.9 °C 30.40in /  1029.3hPa NW 2.4mph /  3.9km/h 2.5mph /  4km/h 95.9% 0.00in /  0mm 0 W/m2
20:04 41.8 °F /  5.4 °C 40.7 °F /  4.8 °C 30.40in /  1029.3hPa WNW 2.8mph /  4.5km/h 3mph /  4.8km/h 96% 0.00in /  0mm 0 W/m2
20:09 41.5 °F /  5.3 °C 40.4 °F /  4.7 °C 30.40in /  1029.3hPa West 2.9mph /  4.7km/h 3mph /  4.8km/h 96% 0.00in /  0mm 0 W/m2
20:14 41.3 °F /  5.2 °C 40.7 °F /  4.8 °C 30.40in /  1029.3hPa WSW 3.3mph /  5.3km/h 3mph /  4.8km/h 97.9% 0.00in /  0mm 0 W/m2
20:19 41 °F /  5 °C 40.5 °F /  4.7 °C 30.40in /  1029.3hPa WSW 2.5mph /  4km/h 4mph /  6.4km/h 98% 0.00in /  0mm 0 W/m2
20:24 40.8 °F /  4.9 °C 40.3 °F /  4.6 °C 30.40in /  1029.3hPa West 2.4mph /  3.9km/h 3mph /  4.8km/h 98% 0.00in /  0mm 0 W/m2
20:29 40.6 °F /  4.8 °C 40.1 °F /  4.5 °C 30.40in /  1029.3hPa West 3.5mph /  5.6km/h 4mph /  6.4km/h 98% 0.00in /  0mm 0 W/m2
20:34 40.5 °F /  4.7 °C 40.1 °F /  4.5 °C 30.40in /  1029.3hPa West 3.6mph /  5.8km/h 4mph /  6.4km/h 98.4% 0.00in /  0mm 0 W/m2
20:39 40.5 °F /  4.7 °C 40.2 °F /  4.6 °C 30.40in /  1029.3hPa West 4.1mph /  6.6km/h 5mph /  8km/h 99% 0.00in /  0mm 0 W/m2
20:44 40.4 °F /  4.7 °C 40.1 °F /  4.5 °C 30.40in /  1029.3hPa West 2.4mph /  3.9km/h 5mph /  8km/h 99% 0.00in /  0mm 0 W/m2
20:49 40.2 °F /  4.6 °C 39.9 °F /  4.4 °C 30.40in /  1029.3hPa West 0.2mph /  0.3km/h 2mph /  3.2km/h 99% 0.00in /  0mm 0 W/m2
20:54 40.1 °F /  4.5 °C 39.8 °F /  4.3 °C 30.40in /  1029.3hPa WNW 0.4mph /  0.6km/h 0.2mph /  0.3km/h 99% 0.00in /  0mm 0 W/m2
20:59 39.9 °F /  4.4 °C 39.7 °F /  4.3 °C 30.40in /  1029.3hPa WNW 1.9mph /  3.1km/h 1.6mph /  2.6km/h 99% 0.00in /  0mm 0 W/m2
21:04 39.7 °F /  4.3 °C 39.4 °F /  4.1 °C 30.40in /  1029.3hPa West 1.3mph /  2.1km/h 2mph /  3.2km/h 99% 0.00in /  0mm 0 W/m2
21:09 39.6 °F /  4.2 °C 39.3 °F /  4.1 °C 30.40in /  1029.3hPa WNW 2.3mph /  3.7km/h 2mph /  3.2km/h 99% 0.00in /  0mm 0 W/m2
21:14 39.5 °F /  4.2 °C 39.2 °F /  4 °C 30.40in /  1029.3hPa WNW 3.1mph /  5km/h 3mph /  4.8km/h 99% 0.00in /  0mm 0 W/m2
21:19 39.5 °F /  4.2 °C 39.2 °F /  4 °C 30.40in /  1029.3hPa WNW 3.9mph /  6.3km/h 4mph /  6.4km/h 99% 0.00in /  0mm 0 W/m2
21:24 39.6 °F /  4.2 °C 39.3 °F /  4.1 °C 30.40in /  1029.3hPa WNW 3.2mph /  5.1km/h 5mph /  8km/h 99% 0.00in /  0mm 0 W/m2
21:29 39.6 °F /  4.2 °C 39.3 °F /  4.1 °C 30.40in /  1029.3hPa WNW 2.8mph /  4.5km/h 3mph /  4.8km/h 99% 0.00in /  0mm 0 W/m2
21:34 39.6 °F /  4.2 °C 39.3 °F /  4.1 °C 30.39in /  1029hPa West 2.9mph /  4.7km/h 3mph /  4.8km/h 99% 0.00in /  0mm 0 W/m2
21:39 39.6 °F /  4.2 °C 39.3 °F /  4.1 °C 30.39in /  1029hPa West 3.4mph /  5.5km/h 3mph /  4.8km/h 99% 0.00in /  0mm 0 W/m2
21:44 39.6 °F /  4.2 °C 39.3 °F /  4.1 °C 30.39in /  1029hPa West 3mph /  4.8km/h 3mph /  4.8km/h 99% 0.00in /  0mm 0 W/m2
21:49 39.5 °F /  4.2 °C 39.2 °F /  4 °C 30.39in /  1029hPa WNW 3.3mph /  5.3km/h 3.4mph /  5.5km/h 99% 0.00in /  0mm 0 W/m2
21:54 39.5 °F /  4.2 °C 39.2 °F /  4 °C 30.39in /  1029hPa West 3.9mph /  6.3km/h 5mph /  8km/h 99% 0.00in /  0mm 0 W/m2
21:59 39.4 °F /  4.1 °C 39.1 °F /  3.9 °C 30.39in /  1029hPa West 3.4mph /  5.5km/h 5mph /  8km/h 99% 0.00in /  0mm 0 W/m2
22:04 39.3 °F /  4.1 °C 39 °F /  3.9 °C 30.39in /  1029hPa WNW 3.3mph /  5.3km/h 4mph /  6.4km/h 99% 0.00in /  0mm 0 W/m2
22:09 39.2 °F /  4 °C 38.9 °F /  3.8 °C 30.39in /  1029hPa WNW 2.5mph /  4km/h 4mph /  6.4km/h 99% 0.00in /  0mm 0 W/m2
22:14 39 °F /  3.9 °C 38.8 °F /  3.8 °C 30.39in /  1029hPa West 2.2mph /  3.5km/h 3mph /  4.8km/h 99% 0.00in /  0mm 0 W/m2
22:19 38.7 °F /  3.7 °C 38.5 °F /  3.6 °C 30.39in /  1029hPa West 1.5mph /  2.4km/h 2mph /  3.2km/h 99% 0.00in /  0mm 0 W/m2
22:24 38.4 °F /  3.6 °C 38.1 °F /  3.4 °C 30.39in /  1029hPa West 2mph /  3.2km/h 2mph /  3.2km/h 99% 0.00in /  0mm 0 W/m2
22:29 38.1 °F /  3.4 °C 37.9 °F /  3.3 °C 30.39in /  1029hPa WNW 0.2mph /  0.3km/h 2mph /  3.2km/h 99% 0.00in /  0mm 0 W/m2
22:34 37.9 °F /  3.3 °C 37.6 °F /  3.1 °C 30.39in /  1029hPa North 0.4mph /  0.6km/h 0.2mph /  0.3km/h 99% 0.00in /  0mm 0 W/m2
22:39 37.7 °F /  3.2 °C 37.4 °F /  3 °C 30.39in /  1029hPa NNW 1.9mph /  3.1km/h 1mph /  1.6km/h 99% 0.00in /  0mm 0 W/m2
22:44 37.6 °F /  3.1 °C 37.3 °F /  2.9 °C 30.39in /  1029hPa NW 2.1mph /  3.4km/h 2mph /  3.2km/h 99% 0.00in /  0mm 0 W/m2
22:49 37.4 °F /  3 °C 37.1 °F /  2.8 °C 30.39in /  1029hPa WNW 0.7mph /  1.1km/h 2mph /  3.2km/h 99% 0.00in /  0mm 0 W/m2
22:54 37.4 °F /  3 °C 37.1 °F /  2.8 °C 30.39in /  1029hPa WNW 1.6mph /  2.6km/h 2mph /  3.2km/h 99% 0.00in /  0mm 0 W/m2
22:59 37.2 °F /  2.9 °C 37 °F /  2.8 °C 30.39in /  1029hPa West 2.2mph /  3.5km/h 2mph /  3.2km/h 99% 0.00in /  0mm 0 W/m2
23:04 37.1 °F /  2.8 °C 36.9 °F /  2.7 °C 30.39in /  1029hPa West 3.2mph /  5.1km/h 2.9mph /  4.7km/h 99% 0.00in /  0mm 0 W/m2
23:09 37 °F /  2.8 °C 36.8 °F /  2.7 °C 30.39in /  1029hPa West 3.5mph /  5.6km/h 3.1mph /  5km/h 99% 0.00in /  0mm 0 W/m2
23:14 36.9 °F /  2.7 °C 36.7 °F /  2.6 °C 30.39in /  1029hPa WNW 2.9mph /  4.7km/h 4mph /  6.4km/h 99% 0.00in /  0mm 0 W/m2
23:19 36.9 °F /  2.7 °C 36.6 °F /  2.6 °C 30.38in /  1028.7hPa NW 2.2mph /  3.5km/h 3mph /  4.8km/h 99% 0.00in /  0mm 0 W/m2
23:24 37 °F /  2.8 °C 36.8 °F /  2.7 °C 30.38in /  1028.7hPa NNW 0.7mph /  1.1km/h 3mph /  4.8km/h 99% 0.00in /  0mm 0 W/m2
23:29 37.1 °F /  2.8 °C 36.9 °F /  2.7 °C 30.38in /  1028.7hPa NNW 2mph /  3.2km/h 2mph /  3.2km/h 99% 0.00in /  0mm 0 W/m2
23:34 37 °F /  2.8 °C 36.8 °F /  2.7 °C 30.38in /  1028.7hPa NW 2.2mph /  3.5km/h 2mph /  3.2km/h 99% 0.00in /  0mm 0 W/m2
23:39 37 °F /  2.8 °C 36.8 °F /  2.7 °C 30.38in /  1028.7hPa NW 0.7mph /  1.1km/h 2mph /  3.2km/h 99% 0.00in /  0mm 0 W/m2
23:44 36.9 °F /  2.7 °C 36.6 °F /  2.6 °C 30.38in /  1028.7hPa NNW 1.9mph /  3.1km/h 2mph /  3.2km/h 99% 0.00in /  0mm 0 W/m2
23:49 36.7 °F /  2.6 °C 36.4 °F /  2.4 °C 30.38in /  1028.7hPa NW 1.9mph /  3.1km/h 2.7mph /  4.3km/h 99% 0.00in /  0mm 0 W/m2
23:54 36.4 °F /  2.4 °C 36.2 °F /  2.3 °C 30.38in /  1028.7hPa West 3.2mph /  5.1km/h 3mph /  4.8km/h 99% 0.00in /  0mm 0 W/m2
23:59 36.2 °F /  2.3 °C 36 °F /  2.2 °C 30.38in /  1028.7hPa West 2.4mph /  3.9km/h 3mph /  4.8km/h 99% 0.00in /  0mm 0 W/m2
Knjazevac, Serbia
Compliments of Weather Underground - 4 mb